createdAt,value
2022-10-01T00:01:13.655Z,10.70
2022-10-01T00:03:41.209Z,10.70
2022-10-01T00:06:12.548Z,10.80
2022-10-01T00:08:41.962Z,10.80
2022-10-01T00:11:14.301Z,10.80
2022-10-01T00:13:46.255Z,10.80
2022-10-01T00:16:16.352Z,10.70
2022-10-01T00:18:45.801Z,10.70
2022-10-01T00:21:16.640Z,10.60
2022-10-01T00:23:43.679Z,10.70
2022-10-01T00:26:20.869Z,10.60
2022-10-01T00:28:52.572Z,10.60
2022-10-01T00:31:19.491Z,10.70
2022-10-01T00:33:47.093Z,10.80
2022-10-01T00:36:14.154Z,10.80
2022-10-01T00:38:42.279Z,10.80
2022-10-01T00:41:09.649Z,10.70
2022-10-01T00:43:42.356Z,10.70
2022-10-01T00:46:21.063Z,10.70
2022-10-01T00:49:16.349Z,10.80
2022-10-01T00:51:46.495Z,10.80
2022-10-01T00:54:49.290Z,10.70
2022-10-01T00:57:18.808Z,10.70
2022-10-01T00:59:46.553Z,10.60
2022-10-01T01:02:13.485Z,10.70
2022-10-01T01:04:41.498Z,10.70
2022-10-01T01:07:09.528Z,10.70
2022-10-01T01:09:40.183Z,10.60
2022-10-01T01:12:45.408Z,10.70
2022-10-01T01:15:20.672Z,10.70
2022-10-01T01:18:31.595Z,10.70
2022-10-01T01:21:13.676Z,10.70
2022-10-01T01:24:28.441Z,10.70
2022-10-01T01:27:16.252Z,10.70
2022-10-01T01:29:56.433Z,10.70
2022-10-01T01:32:34.497Z,10.60
2022-10-01T01:35:06.544Z,10.60
2022-10-01T01:37:38.660Z,10.60
2022-10-01T01:40:10.264Z,10.60
2022-10-01T01:42:41.072Z,10.60
2022-10-01T01:45:11.666Z,10.60
2022-10-01T01:47:42.195Z,10.70
2022-10-01T01:50:12.489Z,10.70
2022-10-01T01:52:39.643Z,10.70
2022-10-01T01:55:08.551Z,10.70
2022-10-01T01:57:41.793Z,10.70
2022-10-01T02:00:09.460Z,10.70
2022-10-01T02:02:39.262Z,10.70
2022-10-01T02:05:18.806Z,10.70
2022-10-01T02:08:02.472Z,10.70
2022-10-01T02:10:56.835Z,10.80
2022-10-01T02:13:26.676Z,10.70
2022-10-01T02:16:01.479Z,10.70
2022-10-01T02:18:42.892Z,10.70
2022-10-01T02:21:21.502Z,10.70
2022-10-01T02:24:14.388Z,10.80
2022-10-01T02:26:44.780Z,10.80
2022-10-01T02:29:14.963Z,10.80
2022-10-01T02:31:41.928Z,10.80
2022-10-01T02:34:12.627Z,10.80
2022-10-01T02:36:42.172Z,10.80
2022-10-01T02:39:10.418Z,10.90
2022-10-01T02:41:37.682Z,10.90
2022-10-01T02:44:30.269Z,10.90
2022-10-01T02:46:57.261Z,10.90
2022-10-01T02:49:28.574Z,10.90
2022-10-01T02:52:09.324Z,10.90
2022-10-01T02:54:57.736Z,11.00
2022-10-01T02:57:27.559Z,10.90
2022-10-01T03:00:00.133Z,10.90
2022-10-01T03:02:31.731Z,11.00
2022-10-01T03:04:59.414Z,11.00
2022-10-01T03:07:28.530Z,11.00
2022-10-01T03:09:55.455Z,11.00
2022-10-01T03:12:23.543Z,11.00
2022-10-01T03:14:50.662Z,11.10
2022-10-01T03:17:17.915Z,11.00
2022-10-01T03:19:45.080Z,11.10
2022-10-01T03:22:14.589Z,11.00
2022-10-01T03:24:41.486Z,11.00
2022-10-01T03:27:08.301Z,11.10
2022-10-01T03:29:35.201Z,11.10
2022-10-01T03:32:02.015Z,11.10
2022-10-01T03:34:28.821Z,11.10
2022-10-01T03:36:55.667Z,11.10
2022-10-01T03:39:22.424Z,11.20
2022-10-01T03:41:49.829Z,11.20
2022-10-01T03:44:16.602Z,11.20
2022-10-01T03:46:43.922Z,11.20
2022-10-01T03:49:10.868Z,11.20
2022-10-01T03:51:38.066Z,11.30
2022-10-01T03:54:06.952Z,11.30
2022-10-01T03:56:35.034Z,11.30
2022-10-01T03:59:02.031Z,11.30
2022-10-01T04:01:28.935Z,11.30
2022-10-01T04:03:55.914Z,11.30
2022-10-01T04:06:22.767Z,11.30
2022-10-01T04:08:49.528Z,11.30
2022-10-01T04:11:16.595Z,11.40
2022-10-01T04:13:43.387Z,11.40
2022-10-01T04:16:10.396Z,11.30
2022-10-01T04:18:37.241Z,11.30
2022-10-01T04:21:04.503Z,11.30
2022-10-01T04:23:31.304Z,11.30
2022-10-01T04:26:02.493Z,11.30
2022-10-01T04:28:30.975Z,11.30
2022-10-01T04:31:17.090Z,11.30
2022-10-01T04:33:44.149Z,11.40
2022-10-01T04:36:14.391Z,11.40
2022-10-01T04:38:41.158Z,11.30
2022-10-01T04:41:09.243Z,11.30
2022-10-01T04:43:36.514Z,11.20
2022-10-01T04:46:03.399Z,11.20
2022-10-01T04:48:30.267Z,11.20
2022-10-01T04:50:57.103Z,11.20
2022-10-01T04:53:23.959Z,11.20
2022-10-01T04:55:50.731Z,11.10
2022-10-01T04:58:18.666Z,11.10
2022-10-01T05:00:45.539Z,11.00
2022-10-01T05:03:12.419Z,11.00
2022-10-01T05:05:39.239Z,11.10
2022-10-01T05:08:06.355Z,11.00
2022-10-01T05:10:33.171Z,10.90
2022-10-01T05:13:02.463Z,10.90
2022-10-01T05:15:30.335Z,10.80
2022-10-01T05:17:57.393Z,10.80
2022-10-01T05:20:26.898Z,10.80
2022-10-01T05:22:54.558Z,10.80
2022-10-01T05:25:21.461Z,10.80
2022-10-01T05:27:48.712Z,10.80
2022-10-01T05:30:24.463Z,10.80
2022-10-01T05:33:00.250Z,10.90
2022-10-01T05:35:27.769Z,10.80
2022-10-01T05:37:56.478Z,10.80
2022-10-01T05:40:28.433Z,10.70
2022-10-01T05:42:59.725Z,10.70
2022-10-01T05:45:31.433Z,10.70
2022-10-01T05:48:03.986Z,10.70
2022-10-01T05:50:32.974Z,10.60
2022-10-01T05:53:01.131Z,10.60
2022-10-01T05:55:34.680Z,10.60
2022-10-01T05:58:03.065Z,10.60
2022-10-01T06:00:30.895Z,10.70
2022-10-01T06:02:58.971Z,10.70
2022-10-01T06:05:26.883Z,10.60
2022-10-01T06:07:53.982Z,10.60
2022-10-01T06:10:22.062Z,10.60
2022-10-01T06:12:49.599Z,10.60
2022-10-01T06:15:17.640Z,10.60
2022-10-01T06:17:47.713Z,10.60
2022-10-01T06:20:17.198Z,10.50
2022-10-01T06:22:45.152Z,10.50
2022-10-01T06:25:13.451Z,10.50
2022-10-01T06:27:40.256Z,10.30
2022-10-01T06:30:08.214Z,10.50
2022-10-01T06:32:35.355Z,10.50
2022-10-01T06:35:03.013Z,10.50
2022-10-01T06:37:29.964Z,10.50
2022-10-01T06:39:56.927Z,10.50
2022-10-01T06:42:23.807Z,10.60
2022-10-01T06:44:50.822Z,10.60
2022-10-01T06:47:17.853Z,10.60
2022-10-01T06:49:47.673Z,10.60
2022-10-01T06:52:33.778Z,10.60
2022-10-01T06:55:01.579Z,10.50
2022-10-01T06:57:28.774Z,10.50
2022-10-01T06:59:55.789Z,10.50
2022-10-01T07:02:30.291Z,10.50
2022-10-01T07:05:00.219Z,10.50
2022-10-01T07:07:35.350Z,10.50
2022-10-01T07:10:03.735Z,10.50
2022-10-01T07:12:30.540Z,10.40
2022-10-01T07:14:57.386Z,10.40
2022-10-01T07:17:24.320Z,10.50
2022-10-01T07:19:51.175Z,10.50
2022-10-01T07:22:24.008Z,10.50
2022-10-01T07:24:51.923Z,10.50
2022-10-01T07:27:19.761Z,10.50
2022-10-01T07:29:46.892Z,10.40
2022-10-01T07:32:13.832Z,10.40
2022-10-01T07:34:40.732Z,10.60
2022-10-01T07:37:08.219Z,10.50
2022-10-01T07:39:36.017Z,10.60
2022-10-01T07:42:03.344Z,10.60
2022-10-01T07:44:30.283Z,10.60
2022-10-01T07:46:57.166Z,10.50
2022-10-01T07:49:25.265Z,10.50
2022-10-01T07:51:54.382Z,10.50
2022-10-01T07:54:24.620Z,10.50
2022-10-01T07:56:55.714Z,10.50
2022-10-01T07:59:23.329Z,10.50
2022-10-01T08:01:54.719Z,10.60
2022-10-01T08:04:40.568Z,10.50
2022-10-01T08:07:08.672Z,10.50
2022-10-01T08:09:35.695Z,10.60
2022-10-01T08:12:03.028Z,10.60
2022-10-01T08:14:30.624Z,10.60
2022-10-01T08:16:58.159Z,10.50
2022-10-01T08:19:25.504Z,10.60
2022-10-01T08:21:52.869Z,10.50
2022-10-01T08:24:20.132Z,10.60
2022-10-01T08:26:57.702Z,10.60
2022-10-01T08:29:24.487Z,10.60
2022-10-01T08:31:51.496Z,10.60
2022-10-01T08:34:18.740Z,10.70
2022-10-01T08:36:45.858Z,10.80
2022-10-01T08:39:13.786Z,10.70
2022-10-01T08:41:46.873Z,10.60
2022-10-01T08:44:27.883Z,10.70
2022-10-01T08:47:00.842Z,10.70
2022-10-01T08:49:52.056Z,10.70
2022-10-01T08:52:25.974Z,10.80
2022-10-01T08:55:06.464Z,10.80
2022-10-01T08:57:50.035Z,10.90
2022-10-01T09:00:18.459Z,10.90
2022-10-01T09:02:46.835Z,10.90
2022-10-01T09:05:30.905Z,11.00
2022-10-01T09:08:23.836Z,10.90
2022-10-01T09:11:04.659Z,10.90
2022-10-01T09:14:03.366Z,10.90
2022-10-01T09:17:06.380Z,11.00
2022-10-01T09:19:59.660Z,11.00
2022-10-01T09:22:39.188Z,11.00
2022-10-01T09:25:27.263Z,11.00
2022-10-01T09:28:15.982Z,10.90
2022-10-01T09:30:54.845Z,11.00
2022-10-01T09:33:24.606Z,11.00
2022-10-01T09:36:19.778Z,11.00
2022-10-01T09:38:53.688Z,11.00
2022-10-01T09:41:20.969Z,11.10
2022-10-01T09:43:48.085Z,11.10
2022-10-01T09:46:17.402Z,11.10
2022-10-01T09:48:56.775Z,11.20
2022-10-01T09:51:35.928Z,11.20
2022-10-01T09:54:35.880Z,11.30
2022-10-01T09:57:37.845Z,11.40
2022-10-01T10:00:04.781Z,11.40
2022-10-01T10:02:46.006Z,11.40
2022-10-01T10:05:18.243Z,11.50
2022-10-01T10:07:55.288Z,11.40
2022-10-01T10:10:36.945Z,11.40
2022-10-01T10:13:27.055Z,11.40
2022-10-01T10:16:00.206Z,11.40
2022-10-01T10:18:34.007Z,11.40
2022-10-01T10:21:10.789Z,11.40
2022-10-01T10:23:47.595Z,11.40
2022-10-01T10:26:29.692Z,11.50
2022-10-01T10:28:56.515Z,11.50
2022-10-01T10:31:29.133Z,11.50
2022-10-01T10:34:06.583Z,11.60
2022-10-01T10:36:36.229Z,11.70
2022-10-01T10:39:06.185Z,11.80
2022-10-01T10:41:34.895Z,11.80
2022-10-01T10:44:07.393Z,11.80
2022-10-01T10:46:38.166Z,11.80
2022-10-01T10:49:18.716Z,11.80
2022-10-01T10:51:51.316Z,12.00
2022-10-01T10:54:20.465Z,12.10
2022-10-01T10:56:55.856Z,12.30
2022-10-01T10:59:22.646Z,12.40
2022-10-01T11:01:50.791Z,12.60
2022-10-01T11:04:25.065Z,12.60
2022-10-01T11:07:01.497Z,12.70
2022-10-01T11:09:47.520Z,12.90
2022-10-01T11:12:38.448Z,13.10
2022-10-01T11:15:11.350Z,13.40
2022-10-01T11:18:10.814Z,13.60
2022-10-01T11:20:53.917Z,13.80
2022-10-01T11:23:39.008Z,14.10
2022-10-01T11:26:21.078Z,14.40
2022-10-01T11:28:50.818Z,14.40
2022-10-01T11:31:49.736Z,14.50
2022-10-01T11:34:32.708Z,14.90
2022-10-01T11:37:10.783Z,15.20
2022-10-01T11:39:42.476Z,15.20
2022-10-01T11:42:17.593Z,15.30
2022-10-01T11:44:52.257Z,15.40
2022-10-01T11:47:36.674Z,15.70
2022-10-01T11:50:06.683Z,15.90
2022-10-01T11:52:58.442Z,15.90
2022-10-01T11:55:57.038Z,15.80
2022-10-01T11:58:51.278Z,15.70
2022-10-01T12:01:24.357Z,15.60
2022-10-01T12:03:54.015Z,15.60
2022-10-01T12:06:32.977Z,15.40
2022-10-01T12:09:28.374Z,15.40
2022-10-01T12:12:11.495Z,15.40
2022-10-01T12:14:46.094Z,15.40
2022-10-01T12:17:38.546Z,15.20
2022-10-01T12:20:29.143Z,15.10
2022-10-01T12:22:58.023Z,15.30
2022-10-01T12:25:31.983Z,15.60
2022-10-01T12:28:16.436Z,15.80
2022-10-01T12:31:12.509Z,16.00
2022-10-01T12:34:02.704Z,16.10
2022-10-01T12:36:55.254Z,16.20
2022-10-01T12:39:32.488Z,16.30
2022-10-01T12:42:31.910Z,16.50
2022-10-01T12:45:20.396Z,16.80
2022-10-01T12:48:15.750Z,17.10
2022-10-01T12:50:51.324Z,17.20
2022-10-01T12:53:57.016Z,17.30
2022-10-01T12:57:05.077Z,17.30
2022-10-01T12:59:53.571Z,17.00
2022-10-01T13:02:41.134Z,16.90
2022-10-01T13:05:13.897Z,17.10
2022-10-01T13:08:02.345Z,17.30
2022-10-01T13:11:03.470Z,17.50
2022-10-01T13:13:33.495Z,17.40
2022-10-01T13:16:27.650Z,17.30
2022-10-01T13:19:05.423Z,17.10
2022-10-01T13:21:56.611Z,16.90
2022-10-01T13:24:42.329Z,16.90
2022-10-01T13:27:35.857Z,17.00
2022-10-01T13:30:16.105Z,17.00
2022-10-01T13:32:53.660Z,16.80
2022-10-01T13:35:35.820Z,16.70
2022-10-01T13:38:17.487Z,16.50
2022-10-01T13:40:44.838Z,16.30
2022-10-01T13:43:19.886Z,16.20
2022-10-01T13:45:48.991Z,16.10
2022-10-01T13:48:23.461Z,16.00
2022-10-01T13:50:58.874Z,15.90
2022-10-01T13:53:27.523Z,15.80
2022-10-01T13:55:56.781Z,15.70
2022-10-01T13:58:54.721Z,15.60
2022-10-01T14:01:24.348Z,15.50
2022-10-01T14:04:18.773Z,15.50
2022-10-01T14:06:57.200Z,15.50
2022-10-01T14:09:36.528Z,15.50
2022-10-01T14:12:32.551Z,15.50
2022-10-01T14:15:20.799Z,15.50
2022-10-01T14:17:52.866Z,15.30
2022-10-01T14:20:27.187Z,15.30
2022-10-01T14:23:11.634Z,15.20
2022-10-01T14:25:51.445Z,15.20
2022-10-01T14:28:31.880Z,15.40
2022-10-01T14:31:32.982Z,15.50
2022-10-01T14:34:10.128Z,15.50
2022-10-01T14:36:44.323Z,15.60
2022-10-01T14:39:19.564Z,15.60
2022-10-01T14:41:49.203Z,15.50
2022-10-01T14:44:25.995Z,15.50
2022-10-01T14:46:55.872Z,15.40
2022-10-01T14:49:32.864Z,15.40
2022-10-01T14:52:22.514Z,15.30
2022-10-01T14:55:08.255Z,15.30
2022-10-01T14:57:37.571Z,15.30
2022-10-01T15:00:28.093Z,15.40
2022-10-01T15:03:10.459Z,15.30
2022-10-01T15:05:37.777Z,15.30
2022-10-01T15:08:14.111Z,15.10
2022-10-01T15:11:38.941Z,14.90
2022-10-01T15:14:14.286Z,14.80
2022-10-01T15:16:41.373Z,14.70
2022-10-01T15:19:13.841Z,14.70
2022-10-01T15:21:53.456Z,14.70
2022-10-01T15:24:30.060Z,14.70
2022-10-01T15:26:57.974Z,14.70
2022-10-01T15:29:24.756Z,14.70
2022-10-01T15:31:56.021Z,14.80
2022-10-01T15:34:25.705Z,14.80
2022-10-01T15:36:53.720Z,14.70
2022-10-01T15:39:36.058Z,14.70
2022-10-01T15:42:25.768Z,14.70
2022-10-01T15:45:07.773Z,14.60
2022-10-01T15:47:39.184Z,14.60
2022-10-01T15:50:17.834Z,14.50
2022-10-01T15:52:50.945Z,14.50
2022-10-01T15:55:31.389Z,14.50
2022-10-01T15:58:15.842Z,14.50
2022-10-01T16:01:03.074Z,14.50
2022-10-01T16:03:41.645Z,14.40
2022-10-01T16:06:18.717Z,14.50
2022-10-01T16:09:25.247Z,14.40
2022-10-01T16:12:19.874Z,14.40
2022-10-01T16:14:57.665Z,14.30
2022-10-01T16:17:27.084Z,14.40
2022-10-01T16:19:59.191Z,14.30
2022-10-01T16:22:31.781Z,14.20
2022-10-01T16:25:23.839Z,14.20
2022-10-01T16:28:04.070Z,14.10
2022-10-01T16:30:33.980Z,14.10
2022-10-01T16:33:04.517Z,14.00
2022-10-01T16:35:35.682Z,13.90
2022-10-01T16:38:06.651Z,14.00
2022-10-01T16:40:42.462Z,13.90
2022-10-01T16:43:19.726Z,13.90
2022-10-01T16:45:46.598Z,13.90
2022-10-01T16:48:22.415Z,13.90
2022-10-01T16:50:49.364Z,13.90
2022-10-01T16:53:18.356Z,13.80
2022-10-01T16:55:46.263Z,13.90
2022-10-01T16:58:13.697Z,13.80
2022-10-01T17:00:40.659Z,13.70
2022-10-01T17:03:12.748Z,13.70
2022-10-01T17:05:39.507Z,13.70
2022-10-01T17:08:11.093Z,13.70
2022-10-01T17:10:56.929Z,13.80
2022-10-01T17:13:24.990Z,13.70
2022-10-01T17:15:52.232Z,13.70
2022-10-01T17:18:19.670Z,13.70
2022-10-01T17:20:46.796Z,13.70
2022-10-01T17:23:16.695Z,13.70
2022-10-01T17:25:43.724Z,13.70
2022-10-01T17:28:16.369Z,13.60
2022-10-01T17:30:44.634Z,13.50
2022-10-01T17:33:13.811Z,13.40
2022-10-01T17:35:43.448Z,13.40
2022-10-01T17:38:11.368Z,13.30
2022-10-01T17:40:42.703Z,13.30
2022-10-01T17:43:14.340Z,13.30
2022-10-01T17:45:41.711Z,13.20
2022-10-01T17:48:09.444Z,13.20
2022-10-01T17:50:43.703Z,13.10
2022-10-01T17:53:12.448Z,13.10
2022-10-01T17:55:43.230Z,13.00
2022-10-01T17:58:10.309Z,13.00
2022-10-01T18:00:37.422Z,12.90
2022-10-01T18:03:04.478Z,12.80
2022-10-01T18:05:31.504Z,12.80
2022-10-01T18:07:58.486Z,12.80
2022-10-01T18:10:28.202Z,12.70
2022-10-01T18:12:55.123Z,12.70
2022-10-01T18:15:24.049Z,12.60
2022-10-01T18:18:38.059Z,12.60
2022-10-01T18:20:40.969Z,12.50
2022-10-01T18:23:07.802Z,12.50
2022-10-01T18:25:34.582Z,12.40
2022-10-01T18:28:01.705Z,12.40
2022-10-01T18:30:28.526Z,12.40
2022-10-01T18:32:57.154Z,12.40
2022-10-01T18:35:30.638Z,12.30
2022-10-01T18:38:20.562Z,12.30
2022-10-01T18:40:56.681Z,12.30
2022-10-01T18:43:25.319Z,12.30
2022-10-01T18:46:01.102Z,12.30
2022-10-01T18:48:54.156Z,12.30
2022-10-01T18:51:23.823Z,12.30
2022-10-01T18:54:18.198Z,12.20
2022-10-01T18:56:50.607Z,12.20
2022-10-01T18:59:46.499Z,12.20
2022-10-01T19:02:40.553Z,12.10
2022-10-01T19:05:34.804Z,12.20
2022-10-01T19:08:39.274Z,12.10
2022-10-01T19:11:33.842Z,12.10
2022-10-01T19:14:23.989Z,12.00
2022-10-01T19:17:03.234Z,12.00
2022-10-01T19:19:59.707Z,11.90
2022-10-01T19:22:53.703Z,11.80
2022-10-01T19:25:30.970Z,11.80
2022-10-01T19:28:32.906Z,11.80
2022-10-01T19:31:22.206Z,11.80
2022-10-01T19:33:59.553Z,11.80
2022-10-01T19:36:35.613Z,11.80
2022-10-01T19:39:08.990Z,11.70
2022-10-01T19:41:53.260Z,11.70
2022-10-01T19:44:27.203Z,11.60
2022-10-01T19:46:58.661Z,11.60
2022-10-01T19:49:31.575Z,11.50
2022-10-01T19:52:02.362Z,11.50
2022-10-01T19:54:35.198Z,11.60
2022-10-01T19:57:14.422Z,11.50
2022-10-01T19:59:41.263Z,11.50
2022-10-01T20:02:15.231Z,11.40
2022-10-01T20:04:57.794Z,11.40
2022-10-01T20:07:29.294Z,11.40
2022-10-01T20:10:06.045Z,11.40
2022-10-01T20:12:33.000Z,11.30
2022-10-01T20:15:24.092Z,11.30
2022-10-01T20:18:13.393Z,11.30
2022-10-01T20:20:43.580Z,11.30
2022-10-01T20:23:33.235Z,11.30
2022-10-01T20:26:12.193Z,11.30
2022-10-01T20:28:52.117Z,11.30
2022-10-01T20:31:48.858Z,11.30
2022-10-01T20:34:27.641Z,11.30
2022-10-01T20:37:08.589Z,11.40
2022-10-01T20:39:45.803Z,11.50
2022-10-01T20:42:19.252Z,11.60
2022-10-01T20:44:46.290Z,11.60
2022-10-01T20:47:23.553Z,11.60
2022-10-01T20:50:34.161Z,11.60
2022-10-01T20:53:14.931Z,11.60
2022-10-01T20:55:47.389Z,11.60
2022-10-01T20:58:21.027Z,11.60
2022-10-01T21:00:52.958Z,11.60
2022-10-01T21:04:04.463Z,11.70
2022-10-01T21:06:39.804Z,11.60
2022-10-01T21:09:28.838Z,11.60
2022-10-01T21:12:14.703Z,11.60
2022-10-01T21:14:52.426Z,11.60
2022-10-01T21:17:41.270Z,11.60
2022-10-01T21:20:16.695Z,11.80
2022-10-01T21:22:52.167Z,11.70
2022-10-01T21:25:37.934Z,11.80
2022-10-01T21:28:35.462Z,11.80
2022-10-01T21:31:22.562Z,11.80
2022-10-01T21:33:54.234Z,11.70
2022-10-01T21:36:32.750Z,11.70
2022-10-01T21:39:09.311Z,11.60
2022-10-01T21:41:53.912Z,11.50
2022-10-01T21:44:47.815Z,11.50
2022-10-01T21:47:52.042Z,11.40
2022-10-01T21:50:45.926Z,11.30
2022-10-01T21:53:40.354Z,11.30
2022-10-01T21:56:58.595Z,11.20
2022-10-01T21:59:40.185Z,11.20
2022-10-01T22:02:33.688Z,11.10
2022-10-01T22:05:09.768Z,11.10
2022-10-01T22:07:44.899Z,11.00
2022-10-01T22:10:41.026Z,11.00
2022-10-01T22:13:21.198Z,11.00
2022-10-01T22:15:52.403Z,11.00
2022-10-01T22:18:42.033Z,11.00
2022-10-01T22:21:14.683Z,10.90
2022-10-01T22:23:48.518Z,10.90
2022-10-01T22:26:23.072Z,10.90
2022-10-01T22:28:55.863Z,10.80
2022-10-01T22:31:27.009Z,10.80
2022-10-01T22:34:06.061Z,10.80
2022-10-01T22:36:50.481Z,10.90
2022-10-01T22:39:34.646Z,10.80
2022-10-01T22:42:10.742Z,10.80
2022-10-01T22:44:37.636Z,10.80
2022-10-01T22:47:31.748Z,10.80
2022-10-01T22:50:04.338Z,10.80
2022-10-01T22:52:37.263Z,10.80
2022-10-01T22:55:30.341Z,10.80
2022-10-01T22:58:06.320Z,10.80
2022-10-01T23:01:00.661Z,10.80
2022-10-01T23:03:48.550Z,10.80
2022-10-01T23:06:41.189Z,10.80
2022-10-01T23:09:30.641Z,10.90
2022-10-01T23:12:14.897Z,10.90
2022-10-01T23:15:12.228Z,10.90
2022-10-01T23:18:09.941Z,10.90
2022-10-01T23:21:05.163Z,11.00
2022-10-01T23:23:35.086Z,10.90
2022-10-01T23:26:08.332Z,10.90
2022-10-01T23:28:57.018Z,10.90
2022-10-01T23:31:40.510Z,10.90
2022-10-01T23:34:24.967Z,10.90
2022-10-01T23:37:18.584Z,10.90
2022-10-01T23:40:14.320Z,10.90
2022-10-01T23:43:07.768Z,11.00
2022-10-01T23:45:41.800Z,11.00
2022-10-01T23:48:17.529Z,11.00
2022-10-01T23:51:22.969Z,11.00
2022-10-01T23:53:59.000Z,10.90
2022-10-01T23:56:50.161Z,10.90
2022-10-01T23:59:41.294Z,10.90
